Terminal Aerodrome Forecast
Issued by NWS

Home | Current Version | Previous Version | Text Only | Print | Product List | Glossary On
Versions: 1 2 3 4 5 6 7 8 9 10 11 12
331
FTUS43 KUNR 062320
TAFGCC
TAF
KGCC 062320Z 0700/0724 36018G28KT P6SM SCT070 BKN150
      TEMPO 0701/0704 P6SM -TSRA BKN070CB
     FM070400 03012KT P6SM -SHRA SCT030 BKN050
     FM071300 09010KT P6SM BKN060=

USA.gov is the U.S. government's official web portal to all federal, state and local government web resources and services.